Time;durP1;ratioP1;P1;durP2;ratioP2;P2;SDS_P1;SDS_P2;PMS_P1;PMS_P2;Temp;Humidity;BMP_temperature;BMP_pressure;BME280_temperature;BME280_humidity;BME280_pressure;Samples;Min_cycle;Max_cycle;Signal;HPM_P1;HPM_P2
2021/08/15 00:01:01;;;;;;;16.70;7.65;;;;;;;16.79;71.38;100265.40;1751038;82;21235;-82
2021/08/15 00:04:08;;;;;;;16.20;7.87;;;;;;;16.76;71.62;100263.63;1750355;82;21572;-81
2021/08/15 00:07:15;;;;;;;15.78;7.08;;;;;;;16.72;71.89;100262.37;1750358;81;21743;-83
2021/08/15 00:10:21;;;;;;;19.87;7.92;;;;;;;16.67;72.11;100260.76;1751597;82;21315;-82
2021/08/15 00:13:26;;;;;;;12.73;6.87;;;;;;;16.63;72.16;100256.73;1750287;82;21185;-82
2021/08/15 00:16:32;;;;;;;13.95;7.35;;;;;;;16.66;72.24;100259.07;1750359;82;21275;-82
2021/08/15 00:19:39;;;;;;;17.60;7.42;;;;;;;16.66;72.21;100253.55;1752142;82;21319;-83
2021/08/15 00:22:49;;;;;;;10.45;6.60;;;;;;;16.67;72.19;100255.23;1751519;82;21201;-83
2021/08/15 00:25:54;;;;;;;;;;;;;;;16.68;72.13;100252.78;1752821;82;21740;-83
2021/08/15 00:29:00;;;;;;;17.00;7.45;;;;;;;16.69;72.06;100254.47;1750133;82;20225;-82
2021/08/15 00:32:08;;;;;;;21.90;8.33;;;;;;;16.67;72.19;100249.17;1750815;81;21878;-82
2021/08/15 00:35:14;;;;;;;16.93;7.33;;;;;;;16.66;72.23;100254.39;1750629;82;21236;-83
2021/08/15 00:38:20;;;;;;;14.30;7.12;;;;;;;16.66;72.21;100246.64;1752550;82;21260;-82
2021/08/15 00:41:24;;;;;;;18.62;7.17;;;;;;;16.67;72.21;100249.72;1751961;82;21181;-83
2021/08/15 00:44:30;;;;;;;15.95;7.53;;;;;;;16.67;72.15;100248.34;1750250;82;21228;-81
2021/08/15 00:47:37;;;;;;;14.85;6.42;;;;;;;16.68;72.09;100251.41;1751170;82;21220;-82
2021/08/15 00:50:45;;;;;;;17.05;7.28;;;;;;;16.68;72.01;100245.88;1750208;82;21190;-81
2021/08/15 00:53:51;;;;;;;12.80;7.12;;;;;;;16.68;72.01;100246.73;1750208;82;21189;-82
2021/08/15 00:57:01;;;;;;;12.10;7.08;;;;;;;16.66;72.03;100242.50;1750345;82;21188;-83
2021/08/15 01:00:13;;;;;;;15.03;7.97;;;;;;;16.65;72.13;100244.92;1751604;82;21310;-82
2021/08/15 01:03:18;;;;;;;17.65;8.00;;;;;;;16.64;72.16;100239.09;1751059;82;21367;-83
2021/08/15 01:06:23;;;;;;;16.77;8.05;;;;;;;16.64;72.18;100230.81;1750340;82;21295;-82
2021/08/15 01:09:30;;;;;;;14.75;7.87;;;;;;;16.63;72.14;100235.48;1751732;82;21233;-82
2021/08/15 01:12:36;;;;;;;19.70;8.48;;;;;;;16.61;72.17;100232.11;1751778;82;21319;-83
2021/08/15 01:15:41;;;;;;;18.80;7.65;;;;;;;16.61;72.21;100227.97;1750790;82;21189;-82
2021/08/15 01:18:47;;;;;;;16.62;8.33;;;;;;;16.60;72.22;100231.77;1751058;82;21327;-82
2021/08/15 01:21:57;;;;;;;22.95;8.60;;;;;;;16.60;72.20;100240.05;1727995;82;21196;-82
2021/08/15 01:25:05;;;;;;;15.75;7.85;;;;;;;16.61;72.18;100232.95;1751279;82;21331;-82
2021/08/15 01:28:10;;;;;;;15.45;7.92;;;;;;;16.61;72.17;100237.09;1752027;82;21307;-83
2021/08/15 01:31:17;;;;;;;16.02;8.53;;;;;;;16.63;72.17;100228.58;1751640;82;21323;-83
2021/08/15 01:34:23;;;;;;;22.73;9.10;;;;;;;16.67;72.10;100238.67;1750532;82;21403;-83
2021/08/15 01:37:30;;;;;;;15.38;8.10;;;;;;;16.68;71.99;100236.22;1750187;81;21223;-83
2021/08/15 01:40:36;;;;;;;16.48;9.10;;;;;;;16.69;71.90;100240.67;1752833;82;21253;-84
2021/08/15 01:43:35;;;;;;;20.43;9.05;;;;;;;16.69;71.93;100235.14;1751742;82;21830;-84
2021/08/15 01:46:40;;;;;;;26.75;8.70;;;;;;;16.69;71.96;100235.14;1751779;82;21215;-83
2021/08/15 01:49:46;;;;;;;16.80;9.65;;;;;;;16.70;71.95;100239.59;1750427;82;21354;-83
2021/08/15 01:52:53;;;;;;;26.25;9.30;;;;;;;16.69;71.97;100245.66;1751428;82;21236;-84
2021/08/15 01:55:59;;;;;;;16.62;9.20;;;;;;;16.66;72.00;100247.48;1750246;82;21236;-83
2021/08/15 01:59:05;;;;;;;21.48;9.33;;;;;;;16.62;72.11;100246.22;1751927;82;21786;-83
2021/08/15 02:02:10;;;;;;;21.62;10.63;;;;;;;16.58;72.35;100243.58;1750308;82;21342;-83
2021/08/15 02:05:19;;;;;;;22.13;9.78;;;;;;;16.54;72.55;100239.55;1750272;81;21276;-84
2021/08/15 02:08:24;;;;;;;22.52;10.28;;;;;;;16.49;72.68;100234.68;1750154;82;21740;-83
2021/08/15 02:11:29;;;;;;;21.73;9.68;;;;;;;16.46;72.82;100236.48;1750366;82;21260;-83
2021/08/15 02:14:35;;;;;;;18.85;10.13;;;;;;;16.44;72.93;100236.40;1750408;80;21299;-82
2021/08/15 02:17:35;;;;;;;23.02;10.45;;;;;;;16.43;73.08;100238.85;1751828;82;21362;-84
2021/08/15 02:20:37;;;;;;;24.10;9.28;;;;;;;16.42;73.16;100244.91;1750077;82;21783;-83
2021/08/15 02:23:44;;;;;;;23.73;10.50;;;;;;;16.41;73.19;100239.05;1752427;82;21255;-84
2021/08/15 02:26:49;;;;;;;25.00;10.03;;;;;;;16.42;73.23;100241.27;1750373;82;21875;-82
2021/08/15 02:29:55;;;;;;;18.15;9.38;;;;;;;16.41;73.23;100232.68;1751805;82;21343;-83
2021/08/15 02:33:00;;;;;;;25.00;10.13;;;;;;;16.39;73.30;100234.82;1752192;81;21373;-83
2021/08/15 02:36:07;;;;;;;24.20;10.63;;;;;;;16.33;73.44;100239.30;1757089;81;21239;-84
2021/08/15 02:39:13;;;;;;;18.95;10.28;;;;;;;16.27;73.66;100243.74;1757660;81;21311;-83
2021/08/15 02:42:19;;;;;;;27.40;10.78;;;;;;;16.23;73.82;100247.14;1757421;81;21325;-84
2021/08/15 02:45:25;;;;;;;21.12;10.93;;;;;;;16.19;73.98;100247.28;1757525;81;21593;-84
2021/08/15 02:48:32;;;;;;;25.82;10.98;;;;;;;16.18;74.06;100249.70;1758217;81;21829;-83
2021/08/15 02:51:37;;;;;;;20.55;11.43;;;;;;;16.15;74.16;100246.86;1756097;81;21256;-83
2021/08/15 02:54:43;;;;;;;23.90;11.43;;;;;;;16.15;74.26;100250.16;1757707;81;21838;-84
2021/08/15 02:57:48;;;;;;;27.90;11.55;;;;;;;16.15;74.30;100241.88;1757296;81;21307;-82
2021/08/15 03:00:54;;;;;;;19.27;10.70;;;;;;;16.11;74.45;100230.41;1756994;81;21378;-82
2021/08/15 03:04:00;;;;;;;18.55;10.38;;;;;;;16.09;74.74;100230.64;1757565;81;21303;-82
2021/08/15 03:07:07;;;;;;;22.75;10.53;;;;;;;16.08;74.94;100223.39;1756679;81;21342;-82
2021/08/15 03:10:16;;;;;;;21.80;9.80;;;;;;;16.08;75.22;100229.45;1757485;81;21172;-83
2021/08/15 03:13:21;;;;;;;24.95;10.90;;;;;;;16.04;75.70;100225.42;1757224;81;21299;-81
2021/08/15 03:16:27;;;;;;;24.70;10.70;;;;;;;16.03;76.08;100220.97;1756061;81;21184;-82
2021/08/15 03:19:34;;;;;;;18.12;9.45;;;;;;;16.07;76.27;100227.23;1755867;80;21219;-82
2021/08/15 03:22:40;;;;;;;22.00;9.88;;;;;;;16.19;76.15;100226.59;1757487;81;21787;-82
2021/08/15 03:25:45;;;;;;;20.05;10.00;;;;;;;16.36;75.68;100227.80;1757407;81;21350;-83
2021/08/15 03:28:50;;;;;;;23.42;10.40;;;;;;;16.58;75.18;100227.86;1757465;81;21315;-81
2021/08/15 03:31:55;;;;;;;29.92;12.25;;;;;;;16.82;74.24;100223.54;1757408;81;21197;-82
2021/08/15 03:35:01;;;;;;;21.52;9.35;;;;;;;17.04;73.38;100219.94;1756375;80;21338;-83
2021/08/15 03:38:07;;;;;;;18.95;9.18;;;;;;;17.27;72.63;100225.45;1756347;81;21323;-83
2021/08/15 03:41:13;;;;;;;16.82;9.35;;;;;;;17.48;72.10;100225.08;1757650;81;21295;-83
2021/08/15 03:44:19;;;;;;;33.55;9.50;;;;;;;17.72;71.44;100227.55;1757477;81;21831;-83
2021/08/15 03:47:31;;;;;;;33.30;9.98;;;;;;;17.96;70.54;100236.95;1756846;81;21232;-84
2021/08/15 03:50:32;;;;;;;19.37;9.33;;;;;;;18.19;69.92;100230.78;1757076;81;21373;-82
2021/08/15 03:53:38;;;;;;;17.67;8.78;;;;;;;18.43;68.94;100234.58;1757638;81;21244;-82
2021/08/15 03:56:45;;;;;;;20.75;8.58;;;;;;;18.63;68.39;100236.61;1756622;81;21185;-84
2021/08/15 03:59:53;;;;;;;18.90;8.60;;;;;;;18.76;67.81;100227.84;1757525;81;21806;-84
2021/08/15 04:02:58;;;;;;;16.42;8.25;;;;;;;18.84;67.26;100231.69;1757457;81;21188;-83
2021/08/15 04:06:08;;;;;;;19.10;9.15;;;;;;;18.87;66.97;100235.40;1757192;81;21349;-83
2021/08/15 04:09:14;;;;;;;19.12;8.43;;;;;;;18.88;67.02;100232.92;1757793;80;21350;-84
2021/08/15 04:12:21;;;;;;;19.37;9.43;;;;;;;18.94;66.98;100229.21;1757628;81;21874;-84
2021/08/15 04:15:27;;;;;;;14.28;7.42;;;;;;;19.09;66.97;100231.03;1757764;81;21172;-84
2021/08/15 04:18:33;;;;;;;16.02;8.55;;;;;;;19.30;66.70;100226.06;1756455;81;21248;-83
2021/08/15 04:21:39;;;;;;;18.27;8.05;;;;;;;19.52;66.04;100230.52;1756819;81;21334;-83
2021/08/15 04:24:46;;;;;;;16.40;7.87;;;;;;;19.76;65.32;100224.00;1757685;81;21318;-84
2021/08/15 04:27:51;;;;;;;15.80;8.43;;;;;;;20.02;64.64;100224.08;1757012;81;21326;-84
2021/08/15 04:30:58;;;;;;;10.98;7.20;;;;;;;20.24;63.98;100228.49;1757683;81;21834;-83
2021/08/15 04:34:03;;;;;;;14.98;8.10;;;;;;;20.36;63.29;100225.69;1757502;81;21295;-80
2021/08/15 04:37:10;;;;;;;13.93;7.33;;;;;;;20.44;62.96;100217.00;1756081;80;21877;-83
2021/08/15 04:40:16;;;;;;;15.83;7.10;;;;;;;20.51;62.73;100216.34;1757556;81;21188;-82
2021/08/15 04:43:24;;;;;;;11.83;7.08;;;;;;;20.57;62.53;100218.17;1757831;81;21707;-84
2021/08/15 04:46:30;;;;;;;16.65;7.28;;;;;;;20.63;62.35;100224.13;1756039;81;21212;-83
2021/08/15 04:49:43;;;;;;;15.65;6.92;;;;;;;20.68;61.98;100227.56;1758649;81;21209;-82
2021/08/15 04:52:48;;;;;;;14.30;6.75;;;;;;;20.76;61.72;100233.30;1759985;80;21355;-82
2021/08/15 04:55:53;;;;;;;13.00;6.40;;;;;;;20.85;61.54;100236.84;1762899;80;21283;-82
2021/08/15 04:59:00;;;;;;;12.93;7.10;;;;;;;20.90;61.23;100232.77;1722358;83;21787;-81
2021/08/15 05:02:07;;;;;;;17.92;7.60;;;;;;;20.95;61.00;100235.36;1722742;81;21308;-81
2021/08/15 05:05:13;;;;;;;14.28;7.47;;;;;;;20.99;60.72;100234.63;1723692;83;21775;-79
2021/08/15 05:08:19;;;;;;;12.75;6.83;;;;;;;21.03;61.02;100233.56;1731704;81;21192;-82
2021/08/15 05:11:25;;;;;;;12.23;5.87;;;;;;;21.13;61.03;100230.46;1725452;81;21169;-81
2021/08/15 05:14:31;;;;;;;16.05;5.95;;;;;;;21.25;61.20;100226.23;1747344;82;21830;-82
2021/08/15 05:17:36;;;;;;;12.78;5.95;;;;;;;21.26;60.91;100227.06;1719238;83;21931;-81
2021/08/15 05:20:42;;;;;;;12.33;5.30;;;;;;;21.18;61.06;100218.05;1719520;83;21188;-81
2021/08/15 05:23:49;;;;;;;9.95;5.05;;;;;;;21.14;61.53;100221.02;1723028;83;21323;-82
2021/08/15 05:26:54;;;;;;;18.17;7.28;;;;;;;21.12;61.93;100221.80;1722938;83;21916;-83
2021/08/15 05:29:59;;;;;;;11.55;4.80;;;;;;;21.18;62.22;100216.66;1694263;84;21626;-81
2021/08/15 05:33:07;;;;;;;8.03;4.70;;;;;;;21.25;61.79;100224.84;1693032;84;21786;-82
2021/08/15 05:36:13;;;;;;;8.63;4.70;;;;;;;21.29;61.59;100223.80;1664245;86;21319;-82
2021/08/15 05:39:19;;;;;;;8.00;5.37;;;;;;;21.30;61.47;100222.70;1714685;83;21343;-82
2021/08/15 05:42:26;;;;;;;13.53;4.53;;;;;;;21.27;62.00;100224.05;1715545;83;22655;-82
2021/08/15 05:45:30;;;;;;;11.15;5.42;;;;;;;21.26;62.38;100215.39;1715490;83;21342;-82
2021/08/15 05:48:36;;;;;;;8.88;5.15;;;;;;;21.30;62.96;100225.48;1715022;83;21295;-83
2021/08/15 05:51:40;;;;;;;10.90;5.00;;;;;;;21.41;62.60;100224.63;1715436;83;21200;-82
2021/08/15 05:54:46;;;;;;;16.17;5.08;;;;;;;21.49;62.33;100235.33;1739152;82;21279;-82
2021/08/15 05:57:52;;;;;;;11.78;5.55;;;;;;;21.58;62.51;100229.66;1704612;84;22561;-82
2021/08/15 06:00:58;;;;;;;6.50;4.33;;;;;;;21.76;62.53;100227.75;1705401;84;21178;-82
2021/08/15 06:04:07;;;;;;;8.75;5.03;;;;;;;21.97;62.10;100221.41;1745263;82;21355;-81
2021/08/15 06:07:13;;;;;;;5.95;3.95;;;;;;;22.31;61.29;100231.19;1707935;84;21206;-82
2021/08/15 06:10:18;;;;;;;8.95;2.98;;;;;;;22.72;59.75;100225.62;1743565;82;21291;-82
2021/08/15 06:13:24;;;;;;;4.40;2.47;;;;;;;23.01;58.65;100230.51;1744903;82;21747;-82
2021/08/15 06:16:29;;;;;;;3.42;2.33;;;;;;;23.14;56.23;100235.66;1709596;84;21317;-83
2021/08/15 06:19:36;;;;;;;2.92;2.30;;;;;;;23.13;54.85;100237.33;1744220;82;21854;-79
2021/08/15 06:22:49;;;;;;;3.42;2.35;;;;;;;23.09;55.15;100234.20;1724068;82;21216;-82
2021/08/15 06:25:57;;;;;;;4.22;2.12;;;;;;;23.05;54.64;100235.83;1724242;82;21240;-82
2021/08/15 06:29:03;;;;;;;4.03;2.45;;;;;;;23.06;54.91;100231.13;1724866;82;21188;-82
2021/08/15 06:32:08;;;;;;;5.35;2.72;;;;;;;23.12;55.17;100236.48;1724502;82;21279;-82
2021/08/15 06:35:14;;;;;;;7.33;2.70;;;;;;;23.14;54.66;100235.66;1725709;82;21181;-82
2021/08/15 06:38:20;;;;;;;2.72;2.10;;;;;;;23.13;55.03;100230.36;1734026;81;21291;-82
2021/08/15 06:41:26;;;;;;;5.42;2.35;;;;;;;23.16;54.36;100246.58;1757808;81;21744;-81
2021/08/15 06:44:32;;;;;;;5.78;2.52;;;;;;;23.12;54.90;100238.44;1753832;81;21768;-80
2021/08/15 06:47:38;;;;;;;4.20;2.55;;;;;;;23.07;55.79;100235.03;1749431;81;21841;-82
2021/08/15 06:50:43;;;;;;;3.00;2.27;;;;;;;23.12;54.00;100237.88;1746465;82;21354;-82
2021/08/15 06:53:48;;;;;;;3.70;2.40;;;;;;;23.12;54.23;100232.86;1753351;81;21291;-81
2021/08/15 06:56:54;;;;;;;6.53;2.92;;;;;;;23.13;54.19;100239.56;1753913;81;21280;-82
2021/08/15 06:59:59;;;;;;;3.70;2.58;;;;;;;23.11;54.04;100233.41;1746533;81;21534;-82
2021/08/15 07:03:04;;;;;;;5.35;2.67;;;;;;;23.10;54.83;100243.42;1753697;81;21699;-82
2021/08/15 07:06:10;;;;;;;4.95;2.72;;;;;;;23.09;54.95;100231.42;1748484;81;21287;-83
2021/08/15 07:09:16;;;;;;;7.90;2.77;;;;;;;23.12;54.78;100233.70;1754564;81;21837;-82
2021/08/15 07:12:21;;;;;;;7.70;2.70;;;;;;;23.28;54.72;100245.87;1745374;81;21295;-83
2021/08/15 07:15:31;;;;;;;2.75;2.10;;;;;;;23.48;53.56;100235.50;1751393;80;21807;-82
2021/08/15 07:18:37;;;;;;;3.58;2.45;;;;;;;23.58;53.49;100241.73;1748859;80;21491;-83
2021/08/15 07:21:42;;;;;;;3.25;2.45;;;;;;;23.65;52.95;100233.45;1743856;80;21184;-82
2021/08/15 07:24:49;;;;;;;4.70;2.80;;;;;;;23.61;53.78;100229.47;1750035;81;21302;-82
2021/08/15 07:27:54;;;;;;;2.92;2.25;;;;;;;23.64;54.53;100247.13;1755589;81;21225;-82
2021/08/15 07:31:00;;;;;;;4.83;2.25;;;;;;;23.64;53.42;100228.98;1753019;81;21260;-81
2021/08/15 07:34:04;;;;;;;6.85;2.00;;;;;;;23.65;53.05;100227.87;1752080;81;21274;-81
2021/08/15 07:37:10;;;;;;;4.95;2.27;;;;;;;23.70;51.35;100242.44;1755122;81;21177;-81
2021/08/15 07:40:17;;;;;;;3.90;2.00;;;;;;;23.66;51.37;100230.94;1750114;80;21172;-83
2021/08/15 07:43:22;;;;;;;3.12;1.52;;;;;;;23.64;51.05;100235.12;1751523;80;21707;-82
2021/08/15 07:46:29;;;;;;;10.48;2.30;;;;;;;23.58;51.34;100245.38;1758614;81;21264;-82
2021/08/15 07:49:34;;;;;;;6.58;2.17;;;;;;;23.58;51.38;100228.62;1753150;80;21857;-82
2021/08/15 07:52:40;;;;;;;5.80;2.20;;;;;;;23.63;50.17;100232.02;1711944;83;21225;-82
2021/08/15 07:55:45;;;;;;;4.25;2.65;;;;;;;23.70;49.64;100230.70;1751002;82;21619;-82
2021/08/15 07:58:50;;;;;;;1.95;1.70;;;;;;;23.82;49.90;100226.36;1748103;82;21780;-82
2021/08/15 08:01:57;;;;;;;4.03;2.12;;;;;;;23.94;48.01;100237.34;1746250;82;21306;-82
2021/08/15 08:05:03;;;;;;;3.47;1.90;;;;;;;23.95;48.68;100223.13;1746975;82;21292;-82
2021/08/15 08:08:09;;;;;;;2.60;1.87;;;;;;;24.02;47.80;100225.68;1747050;82;21886;-82
2021/08/15 08:11:15;;;;;;;5.03;1.75;;;;;;;24.07;46.15;100222.92;1747266;82;21303;-82
2021/08/15 08:14:21;;;;;;;2.95;1.87;;;;;;;24.10;46.45;100222.96;1752034;82;21326;-82
2021/08/15 08:17:28;;;;;;;2.95;1.75;;;;;;;24.18;45.53;100226.63;1744999;82;21188;-81
2021/08/15 08:20:35;;;;;;;3.65;1.70;;;;;;;24.21;44.84;100217.72;1748223;82;21891;-81
2021/08/15 08:23:41;;;;;;;6.33;2.22;;;;;;;24.20;43.88;100225.27;1748987;82;21368;-82
2021/08/15 08:26:46;;;;;;;4.90;2.20;;;;;;;24.15;43.37;100222.44;1750371;82;21184;-82
2021/08/15 08:29:53;;;;;;;8.28;2.40;;;;;;;24.12;43.51;100222.96;1741363;82;21224;-82
2021/08/15 08:32:59;;;;;;;5.17;2.42;;;;;;;24.15;43.85;100221.59;1745032;82;21168;-81
2021/08/15 08:36:04;;;;;;;4.37;2.72;;;;;;;24.22;43.96;100214.65;1753596;80;21271;-83
2021/08/15 08:39:10;;;;;;;4.30;2.62;;;;;;;24.30;44.06;100222.25;1748678;82;21176;-82
2021/08/15 08:42:16;;;;;;;4.58;2.62;;;;;;;24.41;44.39;100208.66;1766193;81;21294;-82
2021/08/15 08:45:27;;;;;;;5.17;2.65;;;;;;;24.54;44.18;100210.97;1756927;80;21267;-82
2021/08/15 08:48:33;;;;;;;5.83;2.55;;;;;;;24.61;44.11;100210.19;1760579;81;21342;-81
2021/08/15 08:51:38;;;;;;;3.92;2.52;;;;;;;24.63;43.01;100222.48;1734631;81;21220;-82
2021/08/15 08:54:45;;;;;;;6.62;3.08;;;;;;;24.56;43.54;100216.28;1763028;81;21189;-81
2021/08/15 08:57:50;;;;;;;5.37;2.52;;;;;;;24.53;43.83;100214.89;1766107;81;21323;-82
2021/08/15 09:00:56;;;;;;;3.42;2.37;;;;;;;24.55;44.59;100209.02;1764711;81;21739;-82
2021/08/15 09:04:01;;;;;;;5.87;2.70;;;;;;;24.58;44.62;100220.50;1761843;81;21810;-82
2021/08/15 09:07:20;;;;;;;3.72;2.50;;;;;;;24.57;45.11;100213.23;1769037;81;21294;-82
2021/08/15 09:10:25;;;;;;;2.90;2.33;;;;;;;24.62;45.75;100214.66;1760986;81;21871;-82
2021/08/15 09:13:32;;;;;;;4.97;2.27;;;;;;;24.70;45.52;100213.28;1767292;81;21759;-82
2021/08/15 09:17:10;;;;;;;3.85;2.60;;;;;;;24.73;45.70;100207.99;1734043;81;21168;-83
2021/08/15 09:20:19;;;;;;;;;;;;;;;24.79;45.45;100209.41;1763195;81;21825;-82
2021/08/15 09:23:40;;;;;;;7.53;2.95;;;;;;;24.85;44.60;100195.75;1758709;81;20281;-82
2021/08/15 09:26:45;;;;;;;6.58;2.20;;;;;;;24.95;44.16;100199.98;1758347;81;21957;-83
2021/08/15 09:29:51;;;;;;;2.98;2.25;;;;;;;25.07;41.85;100196.41;1758699;81;21184;-83
2021/08/15 09:33:14;;;;;;;4.22;2.30;;;;;;;25.15;41.70;100195.04;1759049;81;21830;-82
2021/08/15 09:36:20;;;;;;;5.58;2.42;;;;;;;25.24;40.93;100197.02;1760064;81;21853;-83
2021/08/15 09:39:25;;;;;;;2.98;2.27;;;;;;;25.33;40.84;100199.29;1759974;81;21298;-81
2021/08/15 09:42:50;;;;;;;8.15;2.55;;;;;;;25.38;40.86;100194.53;1704846;83;21863;-82
2021/08/15 09:46:07;;;;;;;4.95;2.62;;;;;;;25.41;40.94;100201.55;1730070;83;21184;-82
2021/08/15 09:49:22;;;;;;;4.42;3.00;;;;;;;25.47;40.49;100185.03;1729913;83;21314;-82
2021/08/15 09:52:27;;;;;;;5.12;2.75;;;;;;;25.53;40.69;100192.31;1728313;83;21394;-82
2021/08/15 09:55:52;;;;;;;3.45;2.50;;;;;;;25.64;41.00;100187.55;1787472;79;21176;-81
2021/08/15 09:58:59;;;;;;;7.92;3.20;;;;;;;25.76;41.53;100188.73;1773612;79;21338;-81
2021/08/15 10:02:05;;;;;;;5.03;3.37;;;;;;;25.89;41.53;100175.00;1717937;81;21338;-83
2021/08/15 10:05:10;;;;;;;4.85;3.70;;;;;;;26.06;40.23;100175.25;1729233;83;22601;-83
2021/08/15 10:08:17;;;;;;;5.62;3.65;;;;;;;26.23;40.17;100179.44;1741601;82;21312;-83
2021/08/15 10:11:24;;;;;;;6.80;3.27;;;;;;;26.43;37.39;100175.77;1718105;83;21219;-82
2021/08/15 10:14:29;;;;;;;4.42;2.85;;;;;;;26.53;36.41;100166.48;1726289;83;21334;-81
2021/08/15 10:17:37;;;;;;;3.35;2.75;;;;;;;26.63;34.95;100159.99;1726868;83;21276;-82
2021/08/15 10:20:43;;;;;;;4.92;2.65;;;;;;;26.66;35.50;100160.83;1720749;83;21236;-82
2021/08/15 10:23:50;;;;;;;7.00;2.80;;;;;;;26.69;36.09;100158.87;1726414;83;21299;-82
2021/08/15 10:27:01;;;;;;;4.90;3.12;;;;;;;26.71;36.77;100156.03;1726154;83;21865;-83
2021/08/15 10:30:07;;;;;;;7.12;3.67;;;;;;;26.72;36.39;100152.13;1728115;83;21830;-83
2021/08/15 10:33:23;;;;;;;3.65;2.60;;;;;;;26.76;36.53;100157.41;1698545;82;21307;-82
2021/08/15 10:36:33;;;;;;;10.82;3.27;;;;;;;26.80;36.35;100138.61;1726118;83;21358;-83
2021/08/15 10:39:43;;;;;;;8.25;3.12;;;;;;;26.85;36.48;100128.77;1728434;83;21192;-83
2021/08/15 10:43:01;;;;;;;7.25;3.47;;;;;;;26.94;37.03;100130.67;1716886;83;21209;-83
2021/08/15 10:46:23;;;;;;;5.58;2.95;;;;;;;27.09;36.16;100150.83;1762712;81;21378;-83
2021/08/15 10:49:50;;;;;;;7.55;2.80;;;;;;;27.02;36.17;100126.44;1760693;81;21291;-82
2021/08/15 10:52:56;;;;;;;6.08;2.40;;;;;;;26.99;36.59;100132.61;1752713;81;21303;-82
2021/08/15 10:56:04;;;;;;;4.28;2.12;;;;;;;27.06;36.18;100137.92;1754859;80;21275;-82
2021/08/15 10:59:10;;;;;;;3.55;2.42;;;;;;;27.20;36.32;100126.36;1752428;81;21176;-82
2021/08/15 11:02:26;;;;;;;3.35;2.50;;;;;;;27.45;36.01;100113.52;1762559;80;21283;-83
2021/08/15 11:05:45;;;;;;;4.53;2.55;;;;;;;27.67;36.26;100115.88;1755235;81;21812;-83
2021/08/15 11:08:59;;;;;;;4.67;2.92;;;;;;;27.92;35.51;100142.09;1767058;80;22084;-82
2021/08/15 11:12:16;;;;;;;7.55;2.60;;;;;;;27.99;34.43;100124.30;1765554;80;21853;-83
2021/08/15 11:15:23;;;;;;;4.45;2.80;;;;;;;28.08;34.82;100116.89;1767293;80;21149;-82
2021/08/15 11:18:30;;;;;;;3.77;2.52;;;;;;;28.16;33.94;100143.53;1718503;80;21173;-82
2021/08/15 11:22:21;;;;;;;3.75;2.50;;;;;;;28.24;34.08;100122.64;1754575;80;21189;-83
2021/08/15 11:25:32;;;;;;;8.90;3.30;;;;;;;28.24;34.08;100122.64;1690893;85;21934;-83
2021/08/15 11:28:37;;;;;;;4.20;2.60;;;;;;;28.32;33.79;100124.50;1708882;83;21308;-82
2021/08/15 11:31:44;;;;;;;7.45;3.02;;;;;;;28.31;33.01;100121.44;1695327;84;21827;-82
2021/08/15 11:35:19;;;;;;;6.08;2.90;;;;;;;28.23;33.22;100120.09;1722815;82;21816;-82
2021/08/15 11:38:24;;;;;;;8.60;2.75;;;;;;;28.14;33.92;100121.34;1717920;83;21569;-82
2021/08/15 11:41:30;;;;;;;7.40;3.00;;;;;;;28.02;34.48;100114.70;1681343;83;21560;-83
2021/08/15 11:45:00;;;;;;;4.37;2.77;;;;;;;27.99;34.82;100117.27;1714028;83;21915;-81
2021/08/15 11:48:20;;;;;;;7.08;3.10;;;;;;;27.94;35.07;100127.16;1719186;83;21295;-81
2021/08/15 11:51:26;;;;;;;7.97;2.72;;;;;;;27.79;35.59;100103.42;1702910;83;21280;-82
2021/08/15 11:54:45;;;;;;;3.80;2.75;;;;;;;27.55;34.36;100120.19;1697410;83;21312;-81
2021/08/15 11:58:03;;;;;;;5.00;2.80;;;;;;;27.55;34.36;100120.19;1684690;85;21339;-82
2021/08/15 12:01:14;;;;;;;5.03;3.22;;;;;;;27.44;34.90;100127.30;1712626;82;21835;-82
2021/08/15 12:04:20;;;;;;;4.35;2.60;;;;;;;27.38;34.39;100117.78;1714998;83;21288;-82
2021/08/15 12:07:33;;;;;;;5.72;2.67;;;;;;;27.32;33.37;100128.22;1729516;82;21197;-82
2021/08/15 12:10:43;;;;;;;3.85;2.30;;;;;;;27.25;32.20;100117.33;1746938;81;21267;-82
2021/08/15 12:13:48;;;;;;;6.08;2.72;;;;;;;27.17;32.85;100115.13;1745259;82;21322;-82
2021/08/15 12:17:02;;;;;;;5.15;2.75;;;;;;;27.12;34.05;100117.14;1752428;81;21716;-82
2021/08/15 12:20:28;;;;;;;4.70;2.52;;;;;;;27.03;35.16;100114.06;1756879;81;21474;-80
2021/08/15 12:23:36;;;;;;;7.10;2.58;;;;;;;26.95;33.91;100116.91;1753374;81;21161;-82
2021/08/15 12:26:44;;;;;;;6.33;2.50;;;;;;;26.96;31.81;100113.53;1759172;81;21153;-81
2021/08/15 12:29:53;;;;;;;3.37;2.30;;;;;;;26.93;31.85;100103.75;1751156;80;21300;-82
2021/08/15 12:33:02;;;;;;;3.10;1.90;;;;;;;26.88;32.91;100109.96;1730944;82;21243;-81
2021/08/15 12:36:26;;;;;;;2.00;1.60;;;;;;;26.86;29.92;100106.59;1744051;81;21161;-81
2021/08/15 12:39:45;;;;;;;3.20;2.10;;;;;;;26.84;28.32;100097.63;1719542;83;21228;-82
2021/08/15 12:43:10;;;;;;;4.45;1.98;;;;;;;26.83;29.81;100097.36;1720665;80;21363;-81
2021/08/15 12:46:30;;;;;;;4.33;2.00;;;;;;;26.80;28.98;100094.56;1728893;83;21297;-82
2021/08/15 12:49:50;;;;;;;9.30;2.55;;;;;;;26.71;29.91;100098.53;1715300;83;21185;-82
2021/08/15 12:52:57;;;;;;;3.87;2.02;;;;;;;26.63;32.20;100095.48;1729627;83;21150;-82
2021/08/15 12:56:04;;;;;;;5.78;2.25;;;;;;;26.56;33.68;100099.17;1715093;83;21399;-82
2021/08/15 12:59:10;;;;;;;6.55;2.17;;;;;;;26.45;34.70;100090.81;1728801;83;21326;-82
2021/08/15 13:02:17;;;;;;;9.08;2.60;;;;;;;26.37;35.21;100091.37;1754550;81;21205;-81
2021/08/15 13:05:22;;;;;;;6.72;2.35;;;;;;;26.30;36.95;100087.17;1718462;82;21299;-82
2021/08/15 13:08:28;;;;;;;12.37;2.77;;;;;;;26.21;37.35;100086.39;1713070;83;21795;-82
2021/08/15 13:11:33;;;;;;;5.90;2.75;;;;;;;26.13;39.53;100095.38;1711827;83;21867;-82
2021/08/15 13:14:40;;;;;;;5.72;2.37;;;;;;;26.08;40.22;100093.98;1726961;81;21236;-82
2021/08/15 13:17:47;;;;;;;8.38;2.80;;;;;;;26.02;42.68;100091.47;1702099;83;21323;-82
2021/08/15 13:20:54;;;;;;;10.28;3.10;;;;;;;25.93;43.63;100094.87;1712568;83;21240;-82
2021/08/15 13:23:59;;;;;;;5.10;2.60;;;;;;;25.83;43.64;100092.63;1712210;83;21844;-82
2021/08/15 13:27:05;;;;;;;8.20;2.80;;;;;;;25.71;43.55;100091.50;1699278;84;21217;-81
2021/08/15 13:30:11;;;;;;;4.78;2.95;;;;;;;25.57;43.17;100091.80;1716536;83;21319;-82
2021/08/15 13:33:09;;;;;;;8.50;3.02;;;;;;;25.45;43.28;100093.45;1754772;81;21241;-82
2021/08/15 13:36:17;;;;;;;7.42;3.25;;;;;;;25.34;44.33;100089.83;1754729;81;21181;-82
2021/08/15 13:39:24;;;;;;;7.08;2.95;;;;;;;25.30;44.01;100089.27;1756982;81;21176;-81
2021/08/15 13:42:31;;;;;;;8.85;3.05;;;;;;;25.24;43.91;100092.06;1754531;80;21275;-82
2021/08/15 13:45:36;;;;;;;7.42;3.25;;;;;;;25.22;44.11;100086.48;1751582;80;21739;-81
2021/08/15 13:48:42;;;;;;;6.95;3.35;;;;;;;25.19;44.12;100090.66;1758872;80;21279;-82
2021/08/15 13:51:47;;;;;;;6.70;3.27;;;;;;;25.17;44.44;100087.31;1765825;80;21870;-81
2021/08/15 13:54:53;;;;;;;6.03;3.00;;;;;;;25.13;44.35;100090.95;1760466;80;21275;-82
2021/08/15 13:57:57;;;;;;;5.08;3.27;;;;;;;25.10;44.68;100092.33;1764612;80;21250;-82
2021/08/15 14:01:04;;;;;;;4.72;2.95;;;;;;;25.09;45.04;100080.02;1769209;80;21874;-82
2021/08/15 14:04:10;;;;;;;6.97;3.27;;;;;;;25.07;45.07;100081.68;1772426;80;21841;-81
2021/08/15 14:07:16;;;;;;;7.67;3.80;;;;;;;25.04;44.12;100082.78;1766085;80;21227;-81
2021/08/15 14:10:22;;;;;;;4.85;3.22;;;;;;;24.98;43.78;100090.30;1764438;80;21323;-82
2021/08/15 14:13:27;;;;;;;6.03;3.22;;;;;;;24.92;43.09;100088.63;1766963;80;21295;-82
2021/08/15 14:16:35;;;;;;;3.72;3.10;;;;;;;24.87;42.93;100081.63;1766738;80;21196;-82
2021/08/15 14:19:42;;;;;;;7.60;3.25;;;;;;;24.84;43.41;100086.36;1764118;80;21145;-82
2021/08/15 14:22:48;;;;;;;6.87;3.98;;;;;;;24.83;43.72;100088.31;1765329;80;21168;-82
2021/08/15 14:25:55;;;;;;;6.28;3.25;;;;;;;24.82;44.16;100077.42;1765983;80;21657;-83
2021/08/15 14:29:01;;;;;;;7.58;3.42;;;;;;;24.81;44.51;100070.15;1770287;80;21291;-82